createdAt,value
2022-11-02T00:00:22.924Z,99.99
2022-11-02T00:01:23.305Z,99.99
2022-11-02T00:02:23.576Z,99.99
2022-11-02T00:03:23.765Z,99.99
2022-11-02T00:04:24.065Z,99.99
2022-11-02T00:05:24.349Z,99.99
2022-11-02T00:06:24.644Z,99.99
2022-11-02T00:07:24.955Z,99.99
2022-11-02T00:08:25.247Z,99.99
2022-11-02T00:09:25.543Z,99.99
2022-11-02T00:10:25.845Z,99.99
2022-11-02T00:11:26.141Z,99.99
2022-11-02T00:12:26.456Z,99.99
2022-11-02T00:13:26.775Z,99.99
2022-11-02T00:14:27.082Z,99.99
2022-11-02T00:15:27.373Z,99.99
2022-11-02T00:16:27.668Z,99.99
2022-11-02T00:17:27.981Z,99.99
2022-11-02T00:18:28.272Z,99.99
2022-11-02T00:19:28.570Z,99.99
2022-11-02T00:20:28.864Z,99.99
2022-11-02T00:21:29.185Z,99.99
2022-11-02T00:22:29.501Z,99.99
2022-11-02T00:23:29.794Z,99.99
2022-11-02T00:24:30.101Z,99.99
2022-11-02T00:25:30.393Z,99.99
2022-11-02T00:26:30.698Z,99.99
2022-11-02T00:27:31.008Z,99.99
2022-11-02T00:28:31.311Z,99.99
2022-11-02T00:29:34.023Z,99.99
2022-11-02T00:30:31.872Z,99.99
2022-11-02T00:31:32.179Z,99.99
2022-11-02T00:32:32.578Z,99.99
2022-11-02T00:33:32.849Z,99.99
2022-11-02T00:34:33.144Z,99.99
2022-11-02T00:35:33.450Z,99.99
2022-11-02T00:36:33.816Z,99.99
2022-11-02T00:38:34.441Z,99.99
2022-11-02T00:39:34.732Z,99.99
2022-11-02T00:40:35.028Z,99.99
2022-11-02T00:41:35.327Z,99.99
2022-11-02T00:42:35.652Z,99.99
2022-11-02T00:43:35.937Z,99.99
2022-11-02T00:44:36.228Z,99.99
2022-11-02T00:45:36.525Z,99.99
2022-11-02T00:46:36.819Z,99.99
2022-11-02T00:47:37.137Z,99.99
2022-11-02T00:48:37.429Z,99.99
2022-11-02T00:49:37.732Z,99.99
2022-11-02T00:50:38.026Z,99.99
2022-11-02T00:51:38.320Z,99.99
2022-11-02T00:52:38.644Z,99.99
2022-11-02T00:53:38.962Z,99.99
2022-11-02T00:54:39.253Z,99.99
2022-11-02T00:55:39.544Z,99.99
2022-11-02T00:56:39.867Z,99.99
2022-11-02T00:57:47.197Z,99.99
2022-11-02T00:58:40.444Z,99.99
2022-11-02T00:59:40.741Z,99.99
2022-11-02T01:00:42.761Z,99.99
2022-11-02T01:01:41.508Z,99.99
2022-11-02T01:02:41.784Z,99.99
2022-11-02T01:03:41.933Z,99.99
2022-11-02T01:04:42.216Z,99.99
2022-11-02T01:05:42.510Z,99.99
2022-11-02T01:06:42.813Z,99.99
2022-11-02T01:07:43.130Z,99.99
2022-11-02T01:08:43.446Z,99.99
2022-11-02T01:09:43.772Z,99.99
2022-11-02T01:10:47.297Z,99.99
2022-11-02T01:11:44.369Z,99.99
2022-11-02T01:12:44.698Z,99.99
2022-11-02T01:13:45.016Z,99.99
2022-11-02T01:14:45.339Z,99.99
2022-11-02T01:15:45.619Z,99.99
2022-11-02T01:17:46.310Z,99.99
2022-11-02T01:18:46.604Z,99.99
2022-11-02T01:19:46.921Z,99.99
2022-11-02T01:20:47.244Z,99.99
2022-11-02T01:21:47.556Z,99.99
2022-11-02T01:22:47.870Z,99.99
2022-11-02T01:23:48.175Z,99.99
2022-11-02T01:24:48.495Z,99.99
2022-11-02T01:25:48.813Z,99.99
2022-11-02T01:26:49.110Z,99.99
2022-11-02T01:27:49.432Z,99.99
2022-11-02T01:28:49.727Z,99.99
2022-11-02T01:29:50.047Z,99.99
2022-11-02T01:30:50.345Z,99.99
2022-11-02T01:31:50.644Z,99.99
2022-11-02T01:32:50.979Z,99.99
2022-11-02T01:33:51.274Z,99.99
2022-11-02T01:34:51.583Z,99.99
2022-11-02T01:35:51.896Z,99.99
2022-11-02T01:36:52.213Z,99.99
2022-11-02T01:37:52.533Z,99.99
2022-11-02T01:38:52.845Z,99.99
2022-11-02T01:39:53.160Z,99.99
2022-11-02T01:40:53.462Z,99.99
2022-11-02T01:41:53.772Z,99.99
2022-11-02T01:42:54.102Z,99.99
2022-11-02T01:43:54.391Z,99.99
2022-11-02T01:44:54.710Z,99.99
2022-11-02T01:45:55.001Z,99.99
2022-11-02T01:46:55.329Z,99.99
2022-11-02T01:47:55.619Z,99.99
2022-11-02T01:48:55.920Z,99.99
2022-11-02T01:49:56.228Z,99.99
2022-11-02T01:50:56.528Z,99.99
2022-11-02T01:51:56.838Z,99.99
2022-11-02T01:52:57.171Z,99.99
2022-11-02T01:53:57.468Z,99.99
2022-11-02T01:54:57.785Z,99.99
2022-11-02T01:55:58.111Z,99.99
2022-11-02T01:56:58.420Z,99.99
2022-11-02T01:57:58.723Z,99.99
2022-11-02T01:58:59.024Z,99.99
2022-11-02T01:59:59.327Z,99.99
2022-11-02T02:00:59.627Z,99.99
2022-11-02T02:02:00.061Z,99.99
2022-11-02T02:03:00.238Z,99.95
2022-11-02T02:04:00.540Z,99.65
2022-11-02T02:05:00.854Z,99.44
2022-11-02T02:06:01.152Z,99.34
2022-11-02T02:07:01.456Z,99.13
2022-11-02T02:08:02.134Z,99.03
2022-11-02T02:09:02.077Z,99.03
2022-11-02T02:10:02.379Z,98.83
2022-11-02T02:11:02.702Z,98.62
2022-11-02T02:12:03.002Z,98.72
2022-11-02T02:13:03.324Z,98.72
2022-11-02T02:14:03.621Z,98.42
2022-11-02T02:15:03.923Z,98.42
2022-11-02T02:16:04.223Z,98.21
2022-11-02T02:17:04.542Z,98.32
2022-11-02T02:18:05.146Z,98.00
2022-11-02T02:19:05.116Z,98.00
2022-11-02T02:20:05.416Z,98.00
2022-11-02T02:21:05.724Z,97.91
2022-11-02T02:22:06.038Z,98.00
2022-11-02T02:23:06.352Z,97.91
2022-11-02T02:24:06.648Z,97.70
2022-11-02T02:25:06.957Z,97.70
2022-11-02T02:26:07.251Z,97.60
2022-11-02T02:27:07.549Z,97.29
2022-11-02T02:28:07.881Z,97.19
2022-11-02T02:29:08.183Z,97.08
2022-11-02T02:30:08.472Z,97.08
2022-11-02T02:31:08.773Z,97.19
2022-11-02T02:32:09.081Z,97.29
2022-11-02T02:33:09.396Z,97.19
2022-11-02T02:34:09.700Z,97.29
2022-11-02T02:35:09.998Z,97.29
2022-11-02T02:36:10.298Z,97.29
2022-11-02T02:37:10.613Z,97.39
2022-11-02T02:38:10.918Z,97.29
2022-11-02T02:39:11.257Z,97.39
2022-11-02T02:40:11.552Z,97.19
2022-11-02T02:41:12.001Z,97.23
2022-11-02T02:42:12.186Z,97.13
2022-11-02T02:43:12.509Z,97.13
2022-11-02T02:44:12.807Z,97.08
2022-11-02T02:45:13.122Z,96.78
2022-11-02T02:46:13.516Z,96.47
2022-11-02T02:47:13.740Z,96.67
2022-11-02T02:48:14.089Z,96.72
2022-11-02T02:49:14.386Z,96.57
2022-11-02T02:50:14.693Z,96.47
2022-11-02T02:51:15.101Z,96.16
2022-11-02T02:52:15.298Z,96.26
2022-11-02T02:53:15.614Z,96.41
2022-11-02T02:54:15.912Z,96.31
2022-11-02T02:55:16.217Z,96.31
2022-11-02T02:56:16.526Z,96.31
2022-11-02T02:57:16.849Z,96.51
2022-11-02T02:58:17.162Z,96.41
2022-11-02T02:59:17.481Z,96.31
2022-11-02T03:00:17.784Z,96.31
2022-11-02T03:01:18.156Z,96.41
2022-11-02T03:02:18.669Z,96.51
2022-11-02T03:03:18.725Z,96.51
2022-11-02T03:04:19.037Z,96.62
2022-11-02T03:05:19.355Z,96.72
2022-11-02T03:06:19.669Z,96.92
2022-11-02T03:07:19.955Z,96.82
2022-11-02T03:08:20.282Z,96.82
2022-11-02T03:09:20.583Z,96.82
2022-11-02T03:10:20.881Z,96.92
2022-11-02T03:11:21.180Z,96.92
2022-11-02T03:12:21.483Z,96.92
2022-11-02T03:13:21.812Z,96.51
2022-11-02T03:14:22.102Z,96.41
2022-11-02T03:15:22.400Z,96.31
2022-11-02T03:16:22.700Z,96.31
2022-11-02T03:17:23.001Z,96.41
2022-11-02T03:18:23.332Z,96.31
2022-11-02T03:19:23.644Z,96.31
2022-11-02T03:20:23.938Z,96.10
2022-11-02T03:21:24.228Z,96.20
2022-11-02T03:22:24.537Z,96.25
2022-11-02T03:23:24.957Z,96.25
2022-11-02T03:24:25.158Z,96.15
2022-11-02T03:25:25.449Z,96.15
2022-11-02T03:26:25.757Z,96.25
2022-11-02T03:27:26.056Z,96.25
2022-11-02T03:28:26.408Z,96.15
2022-11-02T03:29:26.707Z,96.04
2022-11-02T03:30:27.006Z,96.15
2022-11-02T03:31:27.302Z,96.15
2022-11-02T03:32:27.609Z,96.04
2022-11-02T03:33:27.925Z,95.94
2022-11-02T03:34:28.230Z,96.04
2022-11-02T03:35:29.487Z,95.94
2022-11-02T03:36:28.897Z,96.04
2022-11-02T03:37:29.203Z,96.15
2022-11-02T03:38:29.538Z,96.15
2022-11-02T03:39:29.856Z,95.94
2022-11-02T03:40:30.166Z,95.94
2022-11-02T03:41:30.473Z,95.94
2022-11-02T03:42:30.810Z,96.15
2022-11-02T03:43:31.131Z,96.25
2022-11-02T03:44:31.434Z,96.15
2022-11-02T03:45:31.756Z,96.25
2022-11-02T03:46:32.085Z,96.25
2022-11-02T03:47:32.392Z,96.25
2022-11-02T03:48:32.716Z,96.25
2022-11-02T03:49:33.026Z,96.25
2022-11-02T03:50:33.333Z,96.15
2022-11-02T03:51:33.631Z,95.94
2022-11-02T03:52:33.940Z,96.04
2022-11-02T03:53:34.266Z,96.04
2022-11-02T03:54:34.575Z,96.19
2022-11-02T03:55:34.872Z,96.30
2022-11-02T03:56:35.305Z,96.40
2022-11-02T03:57:35.471Z,96.50
2022-11-02T03:58:35.788Z,96.30
2022-11-02T03:59:36.111Z,96.40
2022-11-02T04:00:36.401Z,96.50
2022-11-02T04:01:36.759Z,96.50
2022-11-02T04:02:37.023Z,96.70
2022-11-02T04:03:37.323Z,96.81
2022-11-02T04:04:37.629Z,96.70
2022-11-02T04:05:37.938Z,96.60
2022-11-02T04:06:38.237Z,96.60
2022-11-02T04:07:38.569Z,96.70
2022-11-02T04:08:38.878Z,96.70
2022-11-02T04:09:39.199Z,96.81
2022-11-02T04:10:39.511Z,96.81
2022-11-02T04:11:39.821Z,96.81
2022-11-02T04:12:40.146Z,96.70
2022-11-02T04:13:40.469Z,96.75
2022-11-02T04:14:40.787Z,96.95
2022-11-02T04:15:41.085Z,97.16
2022-11-02T04:16:41.395Z,97.16
2022-11-02T04:17:41.705Z,97.16
2022-11-02T04:18:42.033Z,97.27
2022-11-02T04:19:45.499Z,97.37
2022-11-02T04:20:43.616Z,97.37
2022-11-02T04:21:42.922Z,97.47
2022-11-02T04:22:43.227Z,97.37
2022-11-02T04:23:43.554Z,97.37
2022-11-02T04:24:43.865Z,97.47
2022-11-02T04:25:44.181Z,97.47
2022-11-02T04:26:44.496Z,97.37
2022-11-02T04:27:44.785Z,97.47
2022-11-02T04:28:45.117Z,97.57
2022-11-02T04:29:45.422Z,97.47
2022-11-02T04:30:45.732Z,97.57
2022-11-02T04:31:46.043Z,97.57
2022-11-02T04:32:46.354Z,97.37
2022-11-02T04:33:46.675Z,97.27
2022-11-02T04:34:46.987Z,97.27
2022-11-02T04:35:47.356Z,97.37
2022-11-02T04:36:47.662Z,97.57
2022-11-02T04:37:47.971Z,97.47
2022-11-02T04:38:48.300Z,97.27
2022-11-02T04:39:48.611Z,97.16
2022-11-02T04:40:48.909Z,97.27
2022-11-02T04:41:49.212Z,97.16
2022-11-02T04:42:49.520Z,97.16
2022-11-02T04:43:49.844Z,97.16
2022-11-02T04:44:50.158Z,97.16
2022-11-02T04:45:50.467Z,97.16
2022-11-02T04:46:50.791Z,97.16
2022-11-02T04:47:51.110Z,97.16
2022-11-02T04:48:51.467Z,97.06
2022-11-02T04:49:51.771Z,96.95
2022-11-02T04:50:52.085Z,97.06
2022-11-02T04:51:52.406Z,96.95
2022-11-02T04:52:52.722Z,97.06
2022-11-02T04:53:53.057Z,97.06
2022-11-02T04:54:53.365Z,97.06
2022-11-02T04:55:53.678Z,96.95
2022-11-02T04:56:53.995Z,96.95
2022-11-02T04:57:54.389Z,96.95
2022-11-02T04:58:54.716Z,96.85
2022-11-02T04:59:55.016Z,96.85
2022-11-02T05:00:55.326Z,96.85
2022-11-02T05:01:55.727Z,96.85
2022-11-02T05:02:56.070Z,96.95
2022-11-02T05:03:56.322Z,96.85
2022-11-02T05:04:56.644Z,97.00
2022-11-02T05:05:56.999Z,97.00
2022-11-02T05:07:01.266Z,97.10
2022-11-02T05:07:57.665Z,97.10
2022-11-02T05:08:58.002Z,97.00
2022-11-02T05:09:58.316Z,97.00
2022-11-02T05:10:58.662Z,96.95
2022-11-02T05:11:58.962Z,96.75
2022-11-02T05:12:59.284Z,96.55
2022-11-02T05:13:59.602Z,96.44
2022-11-02T05:14:59.922Z,96.55
2022-11-02T05:16:00.262Z,96.44
2022-11-02T05:17:00.560Z,96.34
2022-11-02T05:18:00.942Z,96.14
2022-11-02T05:19:01.652Z,95.83
2022-11-02T05:20:01.559Z,95.93
2022-11-02T05:21:01.924Z,95.83
2022-11-02T05:22:02.249Z,95.72
2022-11-02T05:23:02.954Z,95.83
2022-11-02T05:24:02.877Z,95.83
2022-11-02T05:25:03.190Z,95.62
2022-11-02T05:26:03.502Z,95.72
2022-11-02T05:27:03.854Z,95.83
2022-11-02T05:28:04.219Z,95.83
2022-11-02T05:29:04.604Z,95.83
2022-11-02T05:30:04.878Z,95.93
2022-11-02T05:31:05.199Z,96.03
2022-11-02T05:32:05.570Z,95.83
2022-11-02T05:33:06.291Z,95.83
2022-11-02T05:34:06.259Z,95.72
2022-11-02T05:35:06.578Z,95.83
2022-11-02T05:36:06.826Z,95.83
2022-11-02T05:37:07.195Z,96.03
2022-11-02T05:38:07.577Z,95.83
2022-11-02T05:39:07.946Z,95.72
2022-11-02T05:40:08.318Z,95.62
2022-11-02T05:41:08.690Z,95.62
2022-11-02T05:42:09.047Z,95.62
2022-11-02T05:43:09.511Z,95.52
2022-11-02T05:44:10.130Z,95.52
2022-11-02T05:45:10.174Z,95.42
2022-11-02T05:46:10.455Z,95.42
2022-11-02T05:47:10.744Z,95.52
2022-11-02T05:48:11.025Z,95.42
2022-11-02T05:49:11.408Z,95.42
2022-11-02T05:50:11.733Z,95.42
2022-11-02T05:51:12.060Z,95.31
2022-11-02T05:52:12.426Z,95.31
2022-11-02T05:53:12.734Z,95.31
2022-11-02T05:54:13.062Z,95.21
2022-11-02T05:55:13.383Z,95.21
2022-11-02T05:56:13.694Z,95.21
2022-11-02T05:57:14.013Z,95.21
2022-11-02T05:58:14.326Z,95.01
2022-11-02T05:59:14.654Z,95.01
2022-11-02T06:00:14.960Z,95.10
2022-11-02T06:01:15.333Z,95.01
2022-11-02T06:02:15.553Z,95.10
2022-11-02T06:03:15.870Z,95.10
2022-11-02T06:04:16.264Z,95.10
2022-11-02T06:05:16.508Z,95.01
2022-11-02T06:06:16.908Z,95.01
2022-11-02T06:07:17.179Z,94.80
2022-11-02T06:08:17.490Z,94.80
2022-11-02T06:09:17.824Z,94.76
2022-11-02T06:10:18.160Z,94.85
2022-11-02T06:11:18.478Z,94.65
2022-11-02T06:12:18.787Z,94.55
2022-11-02T06:13:19.093Z,94.55
2022-11-02T06:14:19.421Z,94.55
2022-11-02T06:15:19.731Z,94.55
2022-11-02T06:16:23.008Z,94.45
2022-11-02T06:17:20.408Z,94.34
2022-11-02T06:18:20.721Z,94.34
2022-11-02T06:19:21.073Z,94.04
2022-11-02T06:20:21.379Z,94.04
2022-11-02T06:21:21.687Z,93.93
2022-11-02T06:22:22.027Z,93.93
2022-11-02T06:23:22.336Z,93.93
2022-11-02T06:24:22.653Z,93.83
2022-11-02T06:25:22.966Z,93.93
2022-11-02T06:26:23.265Z,93.93
2022-11-02T06:27:23.587Z,93.93
2022-11-02T06:28:23.892Z,93.83
2022-11-02T06:29:24.243Z,93.83
2022-11-02T06:30:24.547Z,93.83
2022-11-02T06:31:24.862Z,93.93
2022-11-02T06:32:25.175Z,93.59
2022-11-02T06:33:25.475Z,93.59
2022-11-02T06:34:25.803Z,93.59
2022-11-02T06:35:26.113Z,93.48
2022-11-02T06:36:26.434Z,93.59
2022-11-02T06:37:26.733Z,93.48
2022-11-02T06:38:27.039Z,93.27
2022-11-02T06:39:27.435Z,93.07
2022-11-02T06:40:27.647Z,92.97
2022-11-02T06:41:27.953Z,92.97
2022-11-02T06:42:28.285Z,92.82
2022-11-02T06:43:28.586Z,92.72
2022-11-02T06:44:28.910Z,92.72
2022-11-02T06:45:29.234Z,92.21
2022-11-02T06:46:29.526Z,92.41
2022-11-02T06:47:29.857Z,92.31
2022-11-02T06:48:34.896Z,92.00
2022-11-02T06:49:31.468Z,91.86
2022-11-02T06:50:30.760Z,91.75
2022-11-02T06:51:31.064Z,91.65
2022-11-02T06:52:31.374Z,91.75
2022-11-02T06:53:31.689Z,91.86
2022-11-02T06:54:32.019Z,91.86
2022-11-02T06:55:32.338Z,91.65
2022-11-02T06:56:32.648Z,90.79
2022-11-02T06:57:32.955Z,89.23
2022-11-02T06:58:40.280Z,86.94
2022-11-02T06:59:33.550Z,87.18
2022-11-02T07:00:33.972Z,87.76
2022-11-02T07:01:34.999Z,86.32
2022-11-02T07:02:34.555Z,86.22
2022-11-02T07:03:34.739Z,85.77
2022-11-02T07:04:35.053Z,84.88
2022-11-02T07:05:35.351Z,83.16
2022-11-02T07:06:35.659Z,82.00
2022-11-02T07:07:35.962Z,80.13
2022-11-02T07:08:36.273Z,79.58
2022-11-02T07:09:36.586Z,78.77
2022-11-02T07:10:36.878Z,78.87
2022-11-02T07:11:37.158Z,80.16
2022-11-02T07:12:37.447Z,82.12
2022-11-02T07:13:37.736Z,84.14
2022-11-02T07:14:38.079Z,84.95
2022-11-02T07:15:38.364Z,85.81
2022-11-02T07:16:38.647Z,86.43
2022-11-02T07:17:38.924Z,86.88
2022-11-02T07:18:39.218Z,86.38
2022-11-02T07:19:39.535Z,84.12
2022-11-02T07:20:39.827Z,82.21
2022-11-02T07:21:42.416Z,80.02
2022-11-02T07:22:41.358Z,79.24
2022-11-02T07:23:40.643Z,77.17
2022-11-02T07:24:40.923Z,77.17
2022-11-02T07:25:41.205Z,76.38
2022-11-02T07:26:41.475Z,75.23
2022-11-02T07:27:41.775Z,74.92
2022-11-02T07:28:42.056Z,74.14
2022-11-02T07:29:42.344Z,73.06
2022-11-02T07:30:42.613Z,73.22
2022-11-02T07:31:42.897Z,72.82
2022-11-02T07:32:43.169Z,72.58
2022-11-02T07:33:43.439Z,71.88
2022-11-02T07:34:43.724Z,72.38
2022-11-02T07:35:43.986Z,72.25
2022-11-02T07:36:44.259Z,71.77
2022-11-02T07:37:44.553Z,72.28
2022-11-02T07:38:44.796Z,71.53
2022-11-02T07:39:45.073Z,71.33
2022-11-02T07:40:45.382Z,71.60
2022-11-02T07:41:50.791Z,70.25
2022-11-02T07:42:46.845Z,70.05
2022-11-02T07:43:46.086Z,69.00
2022-11-02T07:44:46.361Z,69.20
2022-11-02T07:45:46.617Z,69.88
2022-11-02T07:46:46.878Z,69.64
2022-11-02T07:47:47.141Z,69.31
2022-11-02T07:48:47.391Z,68.56
2022-11-02T07:49:47.651Z,68.13
2022-11-02T07:50:47.897Z,67.82
2022-11-02T07:51:48.132Z,68.56
2022-11-02T07:52:48.381Z,67.82
2022-11-02T07:53:48.621Z,67.72
2022-11-02T07:54:48.865Z,67.82
2022-11-02T07:55:49.175Z,67.11
2022-11-02T07:56:49.390Z,66.72
2022-11-02T07:57:49.769Z,66.04
2022-11-02T07:58:49.894Z,65.67
2022-11-02T07:59:50.161Z,64.33
2022-11-02T08:00:50.423Z,64.10
2022-11-02T08:01:50.726Z,63.93
2022-11-02T08:02:50.933Z,65.30
2022-11-02T08:03:51.085Z,65.97
2022-11-02T08:04:52.235Z,67.62
2022-11-02T08:05:51.640Z,70.08
2022-11-02T08:06:51.748Z,72.52
2022-11-02T08:07:51.979Z,74.72
2022-11-02T08:08:53.158Z,73.09
2022-11-02T08:09:52.567Z,73.33
2022-11-02T08:10:52.678Z,74.52
2022-11-02T08:11:53.005Z,76.42
2022-11-02T08:12:53.141Z,77.23
2022-11-02T08:13:53.371Z,77.98
2022-11-02T08:14:54.499Z,78.28
2022-11-02T08:15:53.950Z,77.20
2022-11-02T08:16:54.112Z,75.70
2022-11-02T08:17:54.357Z,75.23
2022-11-02T08:18:54.606Z,76.14
2022-11-02T08:19:54.874Z,76.14
2022-11-02T08:20:56.487Z,76.04
2022-11-02T08:21:55.375Z,76.28
2022-11-02T08:22:56.507Z,77.13
2022-11-02T08:23:58.548Z,77.74
2022-11-02T08:24:56.191Z,77.60
2022-11-02T08:25:56.359Z,76.86
2022-11-02T08:26:56.640Z,76.68
2022-11-02T08:27:56.899Z,77.40
2022-11-02T08:28:57.142Z,77.70
2022-11-02T08:29:57.420Z,77.74
2022-11-02T08:30:57.613Z,78.19
2022-11-02T08:31:57.882Z,79.24
2022-11-02T08:32:58.158Z,79.75
2022-11-02T08:33:58.423Z,80.70
2022-11-02T08:34:58.732Z,81.21
2022-11-02T08:35:59.123Z,81.21
2022-11-02T08:36:59.282Z,81.41
2022-11-02T08:37:59.580Z,81.66
2022-11-02T08:38:59.860Z,81.62
2022-11-02T08:40:00.179Z,81.21
2022-11-02T08:41:00.438Z,81.52
2022-11-02T08:42:00.718Z,81.52
2022-11-02T08:43:01.007Z,81.41
2022-11-02T08:44:01.289Z,81.72
2022-11-02T08:45:01.591Z,81.93
2022-11-02T08:46:14.909Z,81.86
2022-11-02T08:47:05.478Z,82.27
2022-11-02T08:48:03.758Z,82.43
2022-11-02T08:49:02.701Z,82.37
2022-11-02T08:50:03.009Z,82.47
2022-11-02T08:51:03.328Z,82.68
2022-11-02T08:52:03.609Z,82.78
2022-11-02T08:53:03.897Z,82.78
2022-11-02T08:54:04.170Z,82.68
2022-11-02T08:55:04.468Z,82.64
2022-11-02T08:56:04.773Z,82.54
2022-11-02T08:57:05.055Z,82.43
2022-11-02T08:58:05.631Z,82.33
2022-11-02T08:59:05.639Z,82.33
2022-11-02T09:00:05.955Z,82.03
2022-11-02T09:01:06.242Z,82.13
2022-11-02T09:02:06.637Z,81.99
2022-11-02T09:03:06.803Z,78.44
2022-11-02T09:04:07.121Z,75.46
2022-11-02T09:05:07.391Z,72.11
2022-11-02T09:06:07.677Z,71.57
2022-11-02T09:07:08.046Z,68.74
2022-11-02T09:08:08.569Z,70.05
2022-11-02T09:09:09.478Z,70.89
2022-11-02T09:10:08.820Z,71.73
2022-11-02T09:11:09.543Z,72.48
2022-11-02T09:12:09.314Z,74.07
2022-11-02T09:13:09.553Z,73.53
2022-11-02T09:14:09.760Z,71.67
2022-11-02T09:15:09.917Z,69.24
2022-11-02T09:16:10.197Z,67.10
2022-11-02T09:17:10.449Z,64.72
2022-11-02T09:18:10.700Z,63.37
2022-11-02T09:19:10.930Z,63.07
2022-11-02T09:20:11.185Z,62.64
2022-11-02T09:21:11.410Z,62.21
2022-11-02T09:22:11.655Z,61.83
2022-11-02T09:23:11.874Z,62.13
2022-11-02T09:24:12.076Z,62.57
2022-11-02T09:25:12.316Z,62.44
2022-11-02T09:26:12.532Z,62.46
2022-11-02T09:27:12.772Z,62.77
2022-11-02T09:28:12.991Z,63.04
2022-11-02T09:29:13.230Z,61.40
2022-11-02T09:30:13.463Z,61.47
2022-11-02T09:31:13.691Z,60.80
2022-11-02T09:32:13.878Z,61.40
2022-11-02T09:33:14.080Z,61.07
2022-11-02T09:34:14.289Z,60.69
2022-11-02T09:35:14.516Z,61.07
2022-11-02T09:36:14.715Z,60.57
2022-11-02T09:37:14.922Z,60.77
2022-11-02T09:38:15.127Z,59.41
2022-11-02T09:39:15.380Z,59.43
2022-11-02T09:40:15.583Z,60.53
2022-11-02T09:41:15.843Z,60.13
2022-11-02T09:42:15.917Z,58.77
2022-11-02T09:43:16.121Z,58.47
2022-11-02T09:44:16.303Z,58.60
2022-11-02T09:45:16.512Z,58.42
2022-11-02T09:46:16.706Z,60.29
2022-11-02T09:48:23.311Z,60.60
2022-11-02T09:49:18.238Z,60.69
2022-11-02T09:50:17.501Z,61.03
2022-11-02T09:51:17.604Z,60.49
2022-11-02T09:52:17.814Z,61.43
2022-11-02T09:53:18.013Z,61.03
2022-11-02T09:54:18.315Z,61.10
2022-11-02T09:55:18.450Z,59.94
2022-11-02T09:56:18.531Z,58.70
2022-11-02T09:57:18.858Z,57.77
2022-11-02T09:58:18.924Z,58.33
2022-11-02T09:59:19.125Z,58.95
2022-11-02T10:00:19.344Z,59.48
2022-11-02T10:01:19.610Z,59.16
2022-11-02T10:02:19.722Z,59.92
2022-11-02T10:03:19.834Z,59.66
2022-11-02T10:04:20.034Z,58.29
2022-11-02T10:05:20.258Z,57.26
2022-11-02T10:06:20.472Z,57.09
2022-11-02T10:07:20.678Z,58.55
2022-11-02T10:08:20.867Z,58.95
2022-11-02T10:09:21.073Z,58.78
2022-11-02T10:10:21.397Z,58.75
2022-11-02T10:11:21.474Z,58.86
2022-11-02T10:12:21.670Z,58.53
2022-11-02T10:13:21.880Z,57.39
2022-11-02T10:14:22.089Z,57.39
2022-11-02T10:15:22.332Z,57.09
2022-11-02T10:16:22.538Z,56.76
2022-11-02T10:17:22.745Z,56.03
2022-11-02T10:18:22.933Z,55.73
2022-11-02T10:19:27.763Z,55.91
2022-11-02T10:20:24.334Z,55.51
2022-11-02T10:21:23.584Z,55.80
2022-11-02T10:22:23.673Z,55.80
2022-11-02T10:23:23.876Z,54.65
2022-11-02T10:24:24.124Z,54.25
2022-11-02T10:25:24.228Z,53.82
2022-11-02T10:26:24.441Z,53.85
2022-11-02T10:27:24.629Z,55.10
2022-11-02T10:28:24.873Z,55.30
2022-11-02T10:29:24.960Z,55.96
2022-11-02T10:30:25.177Z,56.56
2022-11-02T10:31:25.439Z,55.91
2022-11-02T10:32:25.540Z,54.88
2022-11-02T10:33:25.687Z,53.92
2022-11-02T10:34:25.764Z,53.64
2022-11-02T10:35:37.243Z,54.47
2022-11-02T10:36:27.138Z,54.88
2022-11-02T10:37:26.433Z,54.75
2022-11-02T10:38:26.511Z,53.72
2022-11-02T10:39:26.690Z,54.60
2022-11-02T10:40:26.860Z,54.90
2022-11-02T10:41:27.061Z,54.40
2022-11-02T10:42:27.237Z,54.25
2022-11-02T10:43:27.431Z,53.62
2022-11-02T10:44:27.745Z,52.39
2022-11-02T10:45:27.812Z,53.05
2022-11-02T10:46:27.995Z,53.45
2022-11-02T10:47:28.197Z,53.55
2022-11-02T10:48:28.376Z,53.45
2022-11-02T10:49:28.596Z,53.45
2022-11-02T10:50:28.785Z,53.02
2022-11-02T10:51:28.976Z,52.72
2022-11-02T10:52:29.187Z,53.39
2022-11-02T10:53:41.049Z,52.39
2022-11-02T10:54:31.004Z,51.54
2022-11-02T10:55:29.703Z,51.77
2022-11-02T10:56:29.897Z,51.14
2022-11-02T10:57:30.094Z,50.62
2022-11-02T10:58:30.287Z,50.09
2022-11-02T10:59:30.475Z,50.02
2022-11-02T11:00:30.759Z,50.54
2022-11-02T11:01:30.997Z,50.94
2022-11-02T11:02:31.031Z,50.24
2022-11-02T11:03:31.206Z,51.01
2022-11-02T11:04:31.383Z,51.64
2022-11-02T11:05:31.581Z,53.39
2022-11-02T11:06:31.748Z,52.67
2022-11-02T11:07:31.944Z,52.47
2022-11-02T11:08:32.119Z,52.04
2022-11-02T11:09:32.324Z,52.22
2022-11-02T11:10:32.483Z,52.07
2022-11-02T11:11:32.668Z,53.22
2022-11-02T11:12:32.880Z,53.52
2022-11-02T11:15:49.746Z,55.28
2022-11-02T11:16:34.506Z,56.47
2022-11-02T11:20:34.149Z,59.93
2022-11-02T11:21:34.366Z,60.57
2022-11-02T11:22:34.608Z,61.40
2022-11-02T11:23:34.811Z,61.30
2022-11-02T11:24:35.060Z,61.83
2022-11-02T11:25:35.264Z,62.14
2022-11-02T11:26:35.492Z,62.54
2022-11-02T11:27:35.724Z,62.34
2022-11-02T11:28:35.951Z,60.53
2022-11-02T11:29:36.176Z,60.66
2022-11-02T11:31:37.578Z,61.71
2022-11-02T11:32:36.832Z,62.01
2022-11-02T11:33:37.065Z,61.83
2022-11-02T11:34:37.316Z,62.04
2022-11-02T11:35:37.575Z,62.11
2022-11-02T11:36:37.835Z,61.33
2022-11-02T11:37:38.106Z,62.27
2022-11-02T11:38:38.355Z,62.57
2022-11-02T11:39:38.592Z,62.87
2022-11-02T11:40:38.836Z,63.08
2022-11-02T11:41:39.086Z,63.51
2022-11-02T11:42:39.370Z,63.81
2022-11-02T11:43:39.613Z,63.92
2022-11-02T11:44:39.870Z,64.25
2022-11-02T11:45:40.115Z,64.35
2022-11-02T11:46:40.377Z,64.55
2022-11-02T11:47:40.629Z,64.86
2022-11-02T11:48:40.968Z,64.73
2022-11-02T11:50:07.339Z,64.09
2022-11-02T11:50:42.312Z,63.89
2022-11-02T11:51:41.608Z,63.89
2022-11-02T11:52:41.875Z,64.32
2022-11-02T11:53:42.125Z,64.22
2022-11-02T11:54:42.397Z,64.65
2022-11-02T11:55:42.651Z,64.76
2022-11-02T11:56:42.904Z,65.26
2022-11-02T11:57:43.208Z,65.36
2022-11-02T11:58:46.564Z,65.26
2022-11-02T11:59:44.665Z,65.47
2022-11-02T12:00:43.916Z,65.36
2022-11-02T12:01:44.252Z,65.39
2022-11-02T12:02:45.023Z,65.39
2022-11-02T12:03:44.699Z,65.29
2022-11-02T12:04:44.969Z,65.50
2022-11-02T12:05:45.226Z,65.29
2022-11-02T12:06:45.526Z,64.86
2022-11-02T12:07:45.786Z,64.45
2022-11-02T12:08:46.041Z,64.12
2022-11-02T12:09:46.305Z,63.68
2022-11-02T12:10:46.572Z,62.48
2022-11-02T12:11:46.837Z,60.94
2022-11-02T12:12:47.129Z,60.87
2022-11-02T12:13:47.379Z,61.88
2022-11-02T12:14:47.633Z,60.31
2022-11-02T12:15:47.885Z,59.80
2022-11-02T12:16:48.119Z,60.44
2022-11-02T12:17:48.386Z,60.94
2022-11-02T12:18:48.673Z,60.97
2022-11-02T12:19:48.935Z,61.17
2022-11-02T12:20:49.200Z,61.17
2022-11-02T12:21:49.442Z,61.44
2022-11-02T12:22:49.697Z,58.47
2022-11-02T12:23:49.945Z,58.34
2022-11-02T12:24:50.180Z,56.84
2022-11-02T12:25:50.412Z,56.01
2022-11-02T12:26:50.645Z,53.85
2022-11-02T12:27:51.005Z,53.55
2022-11-02T12:28:51.130Z,53.00
2022-11-02T12:29:51.379Z,53.20
2022-11-02T12:30:51.586Z,54.50
2022-11-02T12:31:54.552Z,55.44
2022-11-02T12:32:53.002Z,56.07
2022-11-02T12:33:52.252Z,56.20
2022-11-02T12:35:02.998Z,54.10
2022-11-02T12:35:53.673Z,54.23
2022-11-02T12:37:31.309Z,55.49
2022-11-02T12:37:54.091Z,56.20
2022-11-02T12:38:53.327Z,55.09
2022-11-02T12:39:53.546Z,55.79
2022-11-02T12:40:53.873Z,53.02
2022-11-02T12:41:53.999Z,53.96
2022-11-02T12:42:54.260Z,52.47
2022-11-02T12:43:54.534Z,51.31
2022-11-02T12:44:54.770Z,51.21
2022-11-02T12:45:55.071Z,50.46
2022-11-02T12:46:55.191Z,50.08
2022-11-02T12:47:55.445Z,51.08
2022-11-02T12:48:55.667Z,52.56
2022-11-02T12:49:55.903Z,53.40
2022-11-02T12:50:56.141Z,53.93
2022-11-02T12:51:56.383Z,53.47
2022-11-02T12:52:56.632Z,53.27
2022-11-02T12:53:56.877Z,51.59
2022-11-02T12:54:57.126Z,50.13
2022-11-02T12:55:57.372Z,49.25
2022-11-02T12:56:57.600Z,48.44
2022-11-02T12:57:57.841Z,49.85
2022-11-02T12:59:06.100Z,51.53
2022-11-02T12:59:58.282Z,52.26
2022-11-02T13:00:58.577Z,52.92
2022-11-02T13:01:58.976Z,52.11
2022-11-02T13:02:59.004Z,50.35
2022-11-02T13:03:59.249Z,48.87
2022-11-02T13:04:59.488Z,47.42